This is the latest recevied weather packets stored in our database for station/object EFTP. If no packets are shown the sender has not sent any weather packets the latest 10 day(s).
| Time | Temp. | Humidity | Pressure | Rain* | Wind** | Luminosity | Snow |
|---|---|---|---|---|---|---|---|
| 1777732025 | 17.78° C | 31% | 1007.3 hPa | - | - | - | - |
| 1777729625 | 17.78° C | 30% | 1007.3 hPa | - | - | - | - |
| 1777728425 | 17.78° C | 30% | 1007.3 hPa | - | - | - | - |
| 1777727224 | 18.33° C | 30% | 1007.3 hPa | - | - | - | - |
| 1777726025 | 17.78° C | 29% | 1007.2 hPa | - | - | - | - |
| 1777724824 | 18.89° C | 29% | 1007.2 hPa | - | - | - | - |
| 1777723625 | 18.89° C | 29% | 1007.4 hPa | - | - | - | - |
| 1777722425 | 18.33° C | 29% | 1007.3 hPa | - | - | - | - |
| 1777721224 | 18.89° C | 29% | 1007.4 hPa | - | - | - | - |
| 1777720024 | 18.89° C | 28% | 1007.5 hPa | - | - | - | - |
| 1777718824 | 18.89° C | 29% | 1007.6 hPa | - | - | - | - |
| 1777717624 | 18.89° C | 28% | 1007.6 hPa | - | - | - | - |
| 1777716424 | 18.89° C | 29% | 1007.7 hPa | - | - | - | - |
| 1777715224 | 18.33° C | 31% | 1007.8 hPa | - | - | - | - |
| 1777714024 | 17.78° C | 30% | 1007.9 hPa | - | - | - | - |
| 1777712824 | 17.22° C | 35% | 1008.1 hPa | - | - | - | - |
| 1777711623 | 17.22° C | 39% | 1008.2 hPa | - | - | - | - |
| 1777710423 | 17.22° C | 39% | 1008.3 hPa | - | - | - | - |
| 1777709224 | 16.67° C | 41% | 1008.5 hPa | - | - | - | - |
| 1777708024 | 15.56° C | 43% | 1008.8 hPa | - | - | - | - |
| 1777706823 | 15° C | 44% | 1008.7 hPa | - | - | - | - |
| 1777705623 | 14.44° C | 47% | 1008.9 hPa | - | - | - | - |
| 1777704423 | 14.44° C | 48% | 1009 hPa | - | - | - | - |
| 1777703223 | 13.33° C | 51% | 1009.2 hPa | - | - | - | - |
| 1777702023 | 12.22° C | 56% | 1009.4 hPa | - | - | - | - |
* Rain since midnight (hover to see other rain measurements)
** Current wind speed in m/s (hover to see current wind gust speed)